createdAt,value
2022-09-28T00:02:22.024Z,99079.00
2022-09-28T00:04:52.118Z,99080.00
2022-09-28T00:07:22.248Z,99084.00
2022-09-28T00:09:52.367Z,99077.00
2022-09-28T00:12:25.247Z,99085.00
2022-09-28T00:14:55.829Z,99076.00
2022-09-28T00:17:26.725Z,99085.00
2022-09-28T00:19:56.905Z,99084.00
2022-09-28T00:22:27.039Z,99084.00
2022-09-28T00:24:57.208Z,99084.00
2022-09-28T00:27:29.948Z,99083.00
2022-09-28T00:30:00.847Z,99085.00
2022-09-28T00:32:30.895Z,99090.00
2022-09-28T00:35:01.030Z,99083.00
2022-09-28T00:37:31.151Z,99076.00
2022-09-28T00:40:02.143Z,99070.00
2022-09-28T00:42:35.235Z,99073.00
2022-09-28T00:45:05.389Z,99072.00
2022-09-28T00:47:45.596Z,99061.00
2022-09-28T00:50:26.049Z,99064.00
2022-09-28T00:53:03.507Z,99064.00
2022-09-28T00:55:40.869Z,99066.00
2022-09-28T00:58:19.575Z,99065.00
2022-09-28T01:00:49.721Z,99066.00
2022-09-28T01:03:20.446Z,99072.00
2022-09-28T01:05:51.644Z,99066.00
2022-09-28T01:08:25.047Z,99071.00
2022-09-28T01:10:56.196Z,99063.00
2022-09-28T01:13:29.964Z,99066.00
2022-09-28T01:16:23.553Z,99065.00
2022-09-28T01:19:04.530Z,99067.00
2022-09-28T01:21:48.320Z,99053.00
2022-09-28T01:24:39.030Z,99052.00
2022-09-28T01:27:16.727Z,99053.00
2022-09-28T01:29:58.740Z,99053.00
2022-09-28T01:32:43.967Z,99050.00
2022-09-28T01:35:20.470Z,99050.00
2022-09-28T01:37:55.837Z,99053.00
2022-09-28T01:40:29.683Z,99048.00
2022-09-28T01:43:08.642Z,99037.00
2022-09-28T01:45:46.616Z,99038.00
2022-09-28T01:48:22.678Z,99043.00
2022-09-28T01:50:56.609Z,99037.00
2022-09-28T01:53:35.117Z,99035.00
2022-09-28T01:56:11.406Z,99032.00
2022-09-28T01:58:50.243Z,99035.00
2022-09-28T02:01:29.040Z,99027.00
2022-09-28T02:04:07.343Z,99028.00
2022-09-28T02:06:41.772Z,99032.00
2022-09-28T02:09:16.014Z,99027.00
2022-09-28T02:11:53.576Z,99025.00
2022-09-28T02:14:28.341Z,99031.00
2022-09-28T02:17:00.292Z,99023.00
2022-09-28T02:19:33.514Z,99042.00
2022-09-28T02:22:12.281Z,99030.00
2022-09-28T02:24:48.272Z,99039.00
2022-09-28T02:27:30.089Z,99038.00
2022-09-28T02:30:03.019Z,99035.00
2022-09-28T02:32:40.331Z,99037.00
2022-09-28T02:35:14.852Z,99040.00
2022-09-28T02:37:45.489Z,99030.00
2022-09-28T02:40:17.727Z,99034.00
2022-09-28T02:43:02.172Z,99023.00
2022-09-28T02:45:53.064Z,99022.00
2022-09-28T02:49:00.156Z,99025.00
2022-09-28T02:51:43.933Z,99023.00
2022-09-28T02:54:37.159Z,99032.00
2022-09-28T02:57:21.718Z,99028.00
2022-09-28T03:00:00.044Z,99024.00
2022-09-28T03:02:40.082Z,99013.00
2022-09-28T03:05:18.951Z,99019.00
2022-09-28T03:07:58.867Z,99016.00
2022-09-28T03:10:36.542Z,99013.00
2022-09-28T03:13:08.820Z,99001.00
2022-09-28T03:15:41.431Z,98996.00
2022-09-28T03:18:15.366Z,99002.00
2022-09-28T03:20:45.872Z,99005.00
2022-09-28T03:23:31.225Z,99001.00
2022-09-28T03:26:01.643Z,98996.00
2022-09-28T03:28:31.887Z,99003.00
2022-09-28T03:31:02.244Z,98993.00
2022-09-28T03:33:35.006Z,98994.00
2022-09-28T03:36:05.452Z,98998.00
2022-09-28T03:38:35.624Z,98998.00
2022-09-28T03:41:05.864Z,98991.00
2022-09-28T03:43:35.955Z,98990.00
2022-09-28T03:46:06.272Z,98985.00
2022-09-28T03:48:39.892Z,98991.00
2022-09-28T03:51:13.049Z,98995.00
2022-09-28T03:53:44.074Z,98977.00
2022-09-28T03:56:17.997Z,98984.00
2022-09-28T03:58:48.416Z,98985.00
2022-09-28T04:01:19.129Z,98977.00
2022-09-28T04:03:57.401Z,98980.00
2022-09-28T04:06:28.312Z,98975.00
2022-09-28T04:08:58.788Z,98969.00
2022-09-28T04:11:38.509Z,98971.00
2022-09-28T04:14:19.104Z,98960.00
2022-09-28T04:16:49.346Z,98953.00
2022-09-28T04:19:22.330Z,98952.00
2022-09-28T04:21:53.051Z,98954.00
2022-09-28T04:24:23.238Z,98959.00
2022-09-28T04:27:13.425Z,98959.00
2022-09-28T04:29:44.104Z,98959.00
2022-09-28T04:32:14.843Z,98957.00
2022-09-28T04:34:47.588Z,98962.00
2022-09-28T04:37:17.893Z,98965.00
2022-09-28T04:39:48.981Z,98962.00
2022-09-28T04:42:19.441Z,98959.00
2022-09-28T04:44:49.782Z,98965.00
2022-09-28T04:47:20.108Z,98962.00
2022-09-28T04:49:53.087Z,98961.00
2022-09-28T04:52:23.541Z,98965.00
2022-09-28T04:54:53.937Z,98965.00
2022-09-28T04:57:24.280Z,98954.00
2022-09-28T04:59:54.647Z,98956.00
2022-09-28T05:02:25.126Z,98963.00
2022-09-28T05:04:59.087Z,98972.00
2022-09-28T05:07:29.720Z,98972.00
2022-09-28T05:10:01.689Z,98966.00
2022-09-28T05:12:32.041Z,98969.00
2022-09-28T05:15:02.357Z,98969.00
2022-09-28T05:17:32.706Z,98972.00
2022-09-28T05:20:05.773Z,98978.00
2022-09-28T05:22:36.610Z,98971.00
2022-09-28T05:25:07.585Z,98973.00
2022-09-28T05:27:37.840Z,98972.00
2022-09-28T05:30:11.062Z,98978.00
2022-09-28T05:32:44.332Z,98969.00
2022-09-28T05:35:17.457Z,98966.00
2022-09-28T05:37:47.633Z,98973.00
2022-09-28T05:40:19.059Z,98968.00
2022-09-28T05:42:49.470Z,98972.00
2022-09-28T05:45:20.049Z,98972.00
2022-09-28T05:47:50.538Z,98979.00
2022-09-28T05:50:23.341Z,98975.00
2022-09-28T05:53:06.118Z,98973.00
2022-09-28T05:55:36.678Z,98968.00
2022-09-28T05:58:09.002Z,98970.00
2022-09-28T06:00:40.013Z,98968.00
2022-09-28T06:03:14.208Z,98963.00
2022-09-28T06:05:47.597Z,98957.00
2022-09-28T06:08:17.973Z,98949.00
2022-09-28T06:10:48.613Z,98948.00
2022-09-28T06:13:18.885Z,98947.00
2022-09-28T06:15:49.280Z,98941.00
2022-09-28T06:18:19.523Z,98945.00
2022-09-28T06:20:52.472Z,98938.00
2022-09-28T06:23:22.707Z,98935.00
2022-09-28T06:25:52.900Z,98937.00
2022-09-28T06:28:23.204Z,98946.00
2022-09-28T06:30:54.241Z,98935.00
2022-09-28T06:33:26.916Z,98936.00
2022-09-28T06:36:02.011Z,98937.00
2022-09-28T06:38:32.379Z,98930.00
2022-09-28T06:41:02.853Z,98924.00
2022-09-28T06:43:34.610Z,98929.00
2022-09-28T06:46:05.708Z,98944.00
2022-09-28T06:48:36.619Z,98942.00
2022-09-28T06:51:10.080Z,98940.00
2022-09-28T06:53:40.402Z,98945.00
2022-09-28T06:56:13.242Z,98930.00
2022-09-28T06:58:43.701Z,98933.00
2022-09-28T07:01:14.064Z,98929.00
2022-09-28T07:03:44.394Z,98931.00
2022-09-28T07:06:18.524Z,98933.00
2022-09-28T07:08:58.934Z,98921.00
2022-09-28T07:11:42.249Z,98924.00
2022-09-28T07:14:23.194Z,98928.00
2022-09-28T07:17:13.191Z,98936.00
2022-09-28T07:19:44.661Z,98939.00
2022-09-28T07:22:19.287Z,98936.00
2022-09-28T07:24:51.424Z,98934.00
2022-09-28T07:27:25.494Z,98937.00
2022-09-28T07:29:59.006Z,98939.00
2022-09-28T07:32:32.393Z,98935.00
2022-09-28T07:35:05.126Z,98933.00
2022-09-28T07:37:38.525Z,98938.00
2022-09-28T07:40:24.496Z,98932.00
2022-09-28T07:42:54.950Z,98941.00
2022-09-28T07:45:26.188Z,98937.00
2022-09-28T07:47:58.749Z,98942.00
2022-09-28T07:50:28.941Z,98936.00
2022-09-28T07:53:01.970Z,98931.00
2022-09-28T07:55:33.304Z,98938.00
2022-09-28T07:58:03.789Z,98940.00
2022-09-28T08:00:34.788Z,98936.00
2022-09-28T08:03:06.320Z,98934.00
2022-09-28T08:05:36.729Z,98940.00
2022-09-28T08:08:09.765Z,98940.00
2022-09-28T08:10:44.448Z,98942.00
2022-09-28T08:13:17.007Z,98938.00
2022-09-28T08:15:48.624Z,98945.00
2022-09-28T08:18:18.898Z,98946.00
2022-09-28T08:21:01.887Z,98937.00
2022-09-28T08:23:37.751Z,98940.00
2022-09-28T08:26:13.308Z,98939.00
2022-09-28T08:28:47.904Z,98948.00
2022-09-28T08:31:18.301Z,98944.00
2022-09-28T08:33:53.833Z,98943.00
2022-09-28T08:36:24.278Z,98946.00
2022-09-28T08:38:57.069Z,98937.00
2022-09-28T08:41:39.326Z,98952.00
2022-09-28T08:44:24.186Z,98955.00
2022-09-28T08:46:57.192Z,98947.00
2022-09-28T08:49:33.517Z,98952.00
2022-09-28T08:52:07.815Z,98959.00
2022-09-28T08:54:49.169Z,98956.00
2022-09-28T08:57:24.142Z,98947.00
2022-09-28T08:59:58.531Z,98966.00
2022-09-28T09:02:34.169Z,98961.00
2022-09-28T09:05:11.349Z,98963.00
2022-09-28T09:08:08.628Z,98958.00
2022-09-28T09:10:54.301Z,98961.00
2022-09-28T09:13:48.292Z,98967.00
2022-09-28T09:16:33.822Z,98957.00
2022-09-28T09:19:18.554Z,98956.00
2022-09-28T09:22:00.596Z,98952.00
2022-09-28T09:24:39.239Z,98954.00
2022-09-28T09:27:43.075Z,98960.00
2022-09-28T09:30:20.188Z,98958.00
2022-09-28T09:33:25.969Z,98963.00
2022-09-28T09:36:10.357Z,98964.00
2022-09-28T09:38:55.458Z,98968.00
2022-09-28T09:41:36.133Z,98966.00
2022-09-28T09:44:36.486Z,98959.00
2022-09-28T09:47:10.285Z,98961.00
2022-09-28T09:49:47.411Z,98964.00
2022-09-28T09:52:25.806Z,98968.00
2022-09-28T09:55:01.222Z,98959.00
2022-09-28T09:57:39.740Z,98954.00
2022-09-28T10:00:19.022Z,98951.00
2022-09-28T10:02:52.080Z,98947.00
2022-09-28T10:05:27.974Z,98948.00
2022-09-28T10:08:04.708Z,98941.00
2022-09-28T10:10:39.693Z,98951.00
2022-09-28T10:13:11.724Z,98948.00
2022-09-28T10:15:45.617Z,98959.00
2022-09-28T10:18:18.317Z,98946.00
2022-09-28T10:20:49.102Z,98950.00
2022-09-28T10:23:25.848Z,98947.00
2022-09-28T10:26:02.694Z,98943.00
2022-09-28T10:28:42.644Z,98951.00
2022-09-28T10:31:41.331Z,98939.00
2022-09-28T10:34:17.407Z,98939.00
2022-09-28T10:36:56.142Z,98944.00
2022-09-28T10:39:33.992Z,98941.00
2022-09-28T10:42:07.563Z,98934.00
2022-09-28T10:44:51.885Z,98937.00
2022-09-28T10:47:28.284Z,98939.00
2022-09-28T10:49:59.852Z,98941.00
2022-09-28T10:52:37.206Z,98932.00
2022-09-28T10:55:30.768Z,98941.00
2022-09-28T10:58:01.878Z,98936.00
2022-09-28T11:00:38.424Z,98931.00
2022-09-28T11:03:23.675Z,98946.00
2022-09-28T11:05:58.960Z,98940.00
2022-09-28T11:08:33.475Z,98940.00
2022-09-28T11:11:11.199Z,98937.00
2022-09-28T11:13:44.559Z,98943.00
2022-09-28T11:16:33.132Z,98937.00
2022-09-28T11:19:09.180Z,98943.00
2022-09-28T11:21:46.939Z,98944.00
2022-09-28T11:24:27.327Z,98946.00
2022-09-28T11:27:00.363Z,98939.00
2022-09-28T11:29:41.897Z,98948.00
2022-09-28T11:32:15.885Z,98940.00
2022-09-28T11:34:59.458Z,98947.00
2022-09-28T11:37:47.525Z,98938.00
2022-09-28T11:40:31.863Z,98939.00
2022-09-28T11:43:16.691Z,98944.00
2022-09-28T11:45:53.986Z,98940.00
2022-09-28T11:48:30.662Z,98949.00
2022-09-28T11:51:09.023Z,98944.00
2022-09-28T11:53:43.217Z,98949.00
2022-09-28T11:56:31.452Z,98952.00
2022-09-28T11:59:08.780Z,98959.00
2022-09-28T12:01:45.767Z,98957.00
2022-09-28T12:04:21.711Z,98970.00
2022-09-28T12:07:00.934Z,98967.00
2022-09-28T12:09:41.361Z,98965.00
2022-09-28T12:12:24.755Z,98970.00
2022-09-28T12:14:59.493Z,98965.00
2022-09-28T12:17:37.560Z,98956.00
2022-09-28T12:20:20.155Z,98957.00
2022-09-28T12:23:08.720Z,98962.00
2022-09-28T12:25:48.402Z,98956.00
2022-09-28T12:28:29.826Z,98961.00
2022-09-28T12:31:03.391Z,98961.00
2022-09-28T12:33:33.812Z,98956.00
2022-09-28T12:36:16.639Z,98968.00
2022-09-28T12:39:19.013Z,98962.00
2022-09-28T12:42:12.216Z,98959.00
2022-09-28T12:45:00.273Z,98958.00
2022-09-28T12:48:15.863Z,98966.00
2022-09-28T12:51:00.962Z,98960.00
2022-09-28T12:54:03.879Z,98961.00
2022-09-28T12:56:45.250Z,98975.00
2022-09-28T12:59:25.513Z,98965.00
2022-09-28T13:02:28.758Z,98962.00
2022-09-28T13:05:41.440Z,98968.00
2022-09-28T13:08:16.406Z,98968.00
2022-09-28T13:11:06.957Z,98970.00
2022-09-28T13:13:47.902Z,98971.00
2022-09-28T13:16:26.427Z,98975.00
2022-09-28T13:19:06.467Z,98972.00
2022-09-28T13:21:46.777Z,98960.00
2022-09-28T13:24:34.056Z,98968.00
2022-09-28T13:27:16.558Z,98967.00
2022-09-28T13:29:49.399Z,98962.00
2022-09-28T13:32:21.551Z,98971.00
2022-09-28T13:34:54.903Z,98971.00
2022-09-28T13:37:28.313Z,98972.00
2022-09-28T13:39:59.634Z,98968.00
2022-09-28T13:43:08.069Z,98964.00
2022-09-28T13:45:58.897Z,98968.00
2022-09-28T13:48:48.753Z,98975.00
2022-09-28T13:51:36.713Z,98969.00
2022-09-28T13:54:25.440Z,98983.00
2022-09-28T13:57:04.827Z,98986.00
2022-09-28T13:59:53.169Z,98980.00
2022-09-28T14:02:35.123Z,98984.00
2022-09-28T14:05:08.464Z,98988.00
2022-09-28T14:08:11.633Z,98989.00
2022-09-28T14:10:53.027Z,98988.00
2022-09-28T14:14:02.065Z,98993.00
2022-09-28T14:16:36.543Z,98991.00
2022-09-28T14:19:12.058Z,98994.00
2022-09-28T14:22:10.200Z,98994.00
2022-09-28T14:24:57.831Z,98996.00
2022-09-28T14:28:06.875Z,99004.00
2022-09-28T14:30:51.629Z,98997.00
2022-09-28T14:33:32.944Z,99005.00
2022-09-28T14:36:05.122Z,98993.00
2022-09-28T14:38:52.703Z,99006.00
2022-09-28T14:41:34.765Z,99006.00
2022-09-28T14:44:11.213Z,99005.00
2022-09-28T14:46:46.528Z,99013.00
2022-09-28T14:49:52.987Z,99017.00
2022-09-28T14:52:46.701Z,99021.00
2022-09-28T14:55:20.471Z,99015.00
2022-09-28T14:57:58.786Z,99022.00
2022-09-28T15:00:32.273Z,99021.00
2022-09-28T15:03:12.159Z,99023.00
2022-09-28T15:05:48.283Z,99029.00
2022-09-28T15:08:22.861Z,99034.00
2022-09-28T15:10:54.532Z,99022.00
2022-09-28T15:13:29.258Z,99031.00
2022-09-28T15:16:03.875Z,99040.00
2022-09-28T15:19:10.771Z,99043.00
2022-09-28T15:21:47.915Z,99052.00
2022-09-28T15:24:33.727Z,99042.00
2022-09-28T15:27:06.915Z,99041.00
2022-09-28T15:29:37.255Z,99051.00
2022-09-28T15:32:07.657Z,99043.00
2022-09-28T15:34:52.186Z,99041.00
2022-09-28T15:37:28.657Z,99041.00
2022-09-28T15:40:01.511Z,99047.00
2022-09-28T15:42:38.856Z,99052.00
2022-09-28T15:45:31.200Z,99042.00
2022-09-28T15:48:23.303Z,99053.00
2022-09-28T15:51:06.381Z,99050.00
2022-09-28T15:53:43.927Z,99050.00
2022-09-28T15:56:14.652Z,99043.00
2022-09-28T15:58:45.106Z,99060.00
2022-09-28T16:01:36.637Z,99056.00
2022-09-28T16:04:38.734Z,99058.00
2022-09-28T16:07:32.292Z,99056.00
2022-09-28T16:10:33.645Z,99052.00
2022-09-28T16:13:24.129Z,99061.00
2022-09-28T16:16:00.238Z,99058.00
2022-09-28T16:18:33.942Z,99069.00
2022-09-28T16:21:48.828Z,99070.00
2022-09-28T16:24:25.782Z,99075.00
2022-09-28T16:27:08.752Z,99078.00
2022-09-28T16:29:42.146Z,99081.00
2022-09-28T16:32:41.963Z,99078.00
2022-09-28T16:35:25.588Z,99085.00
2022-09-28T16:38:14.586Z,99087.00
2022-09-28T16:40:49.560Z,99091.00
2022-09-28T16:43:28.935Z,99086.00
2022-09-28T16:46:00.709Z,99093.00
2022-09-28T16:48:32.521Z,99094.00
2022-09-28T16:51:03.499Z,99098.00
2022-09-28T16:53:46.275Z,99099.00
2022-09-28T16:56:17.071Z,99099.00
2022-09-28T16:58:50.854Z,99105.00
2022-09-28T17:01:21.418Z,99104.00
2022-09-28T17:03:52.153Z,99111.00
2022-09-28T17:06:25.620Z,99099.00
2022-09-28T17:08:58.949Z,99102.00
2022-09-28T17:11:29.335Z,99111.00
2022-09-28T17:14:03.552Z,99111.00
2022-09-28T17:17:07.367Z,99112.00
2022-09-28T17:19:29.985Z,99102.00
2022-09-28T17:22:00.476Z,99102.00
2022-09-28T17:24:30.871Z,99113.00
2022-09-28T17:27:03.479Z,99113.00
2022-09-28T17:29:36.891Z,99115.00
2022-09-28T17:32:15.197Z,99124.00
2022-09-28T17:34:51.558Z,99119.00
2022-09-28T17:37:26.611Z,99119.00
2022-09-28T17:39:56.996Z,99128.00
2022-09-28T17:42:27.388Z,99135.00
2022-09-28T17:45:00.348Z,99130.00
2022-09-28T17:47:34.148Z,99135.00
2022-09-28T17:50:04.791Z,99132.00
2022-09-28T17:52:34.894Z,99135.00
2022-09-28T17:55:05.225Z,99137.00
2022-09-28T17:57:36.076Z,99135.00
2022-09-28T18:00:11.034Z,99142.00
2022-09-28T18:02:41.532Z,99141.00
2022-09-28T18:05:14.845Z,99139.00
2022-09-28T18:07:47.807Z,99141.00
2022-09-28T18:10:21.487Z,99144.00
2022-09-28T18:12:52.749Z,99150.00
2022-09-28T18:15:25.527Z,99149.00
2022-09-28T18:17:55.691Z,99148.00
2022-09-28T18:20:25.959Z,99154.00
2022-09-28T18:22:58.725Z,99154.00
2022-09-28T18:25:29.855Z,99151.00
2022-09-28T18:28:01.032Z,99160.00
2022-09-28T18:30:33.960Z,99176.00
2022-09-28T18:33:04.083Z,99164.00
2022-09-28T18:35:34.558Z,99171.00
2022-09-28T18:38:06.350Z,99172.00
2022-09-28T18:40:37.893Z,99173.00
2022-09-28T18:43:08.044Z,99180.00
2022-09-28T18:45:40.851Z,99184.00
2022-09-28T18:48:11.115Z,99180.00
2022-09-28T18:50:41.274Z,99186.00
2022-09-28T18:53:14.816Z,99188.00
2022-09-28T18:55:46.277Z,99188.00
2022-09-28T18:58:16.918Z,99197.00
2022-09-28T19:00:49.672Z,99195.00
2022-09-28T19:03:20.235Z,99203.00
2022-09-28T19:05:50.459Z,99205.00
2022-09-28T19:08:24.254Z,99203.00
2022-09-28T19:11:07.114Z,99209.00
2022-09-28T19:13:37.605Z,99208.00
2022-09-28T19:16:16.097Z,99197.00
2022-09-28T19:18:47.134Z,99203.00
2022-09-28T19:21:19.091Z,99202.00
2022-09-28T19:23:50.237Z,99199.00
2022-09-28T19:26:23.758Z,99209.00
2022-09-28T19:28:54.383Z,99216.00
2022-09-28T19:31:27.816Z,99212.00
2022-09-28T19:33:58.014Z,99210.00
2022-09-28T19:36:31.008Z,99216.00
2022-09-28T19:39:04.489Z,99215.00
2022-09-28T19:41:49.629Z,99212.00
2022-09-28T19:44:27.759Z,99208.00
2022-09-28T19:47:06.834Z,99221.00
2022-09-28T19:49:39.560Z,99215.00
2022-09-28T19:52:16.190Z,99221.00
2022-09-28T19:54:54.550Z,99210.00
2022-09-28T19:57:25.132Z,99223.00
2022-09-28T20:00:00.801Z,99215.00
2022-09-28T20:02:36.597Z,99221.00
2022-09-28T20:05:07.720Z,99214.00
2022-09-28T20:07:39.422Z,99222.00
2022-09-28T20:10:12.110Z,99233.00
2022-09-28T20:12:42.523Z,99229.00
2022-09-28T20:15:13.786Z,99232.00
2022-09-28T20:17:46.526Z,99226.00
2022-09-28T20:20:17.156Z,99232.00
2022-09-28T20:22:47.627Z,99231.00
2022-09-28T20:25:18.302Z,99237.00
2022-09-28T20:27:48.838Z,99244.00
2022-09-28T20:30:19.311Z,99240.00
2022-09-28T20:32:52.229Z,99238.00
2022-09-28T20:35:32.810Z,99241.00
2022-09-28T20:38:09.271Z,99255.00
2022-09-28T20:40:40.390Z,99249.00
2022-09-28T20:43:10.720Z,99254.00
2022-09-28T20:45:40.912Z,99252.00
2022-09-28T20:48:13.704Z,99252.00
2022-09-28T20:50:44.244Z,99267.00
2022-09-28T20:53:14.397Z,99262.00
2022-09-28T20:55:44.647Z,99258.00
2022-09-28T20:58:14.791Z,99266.00
2022-09-28T21:00:45.039Z,99264.00
2022-09-28T21:03:18.160Z,99267.00
2022-09-28T21:05:48.379Z,99269.00
2022-09-28T21:08:18.469Z,99270.00
2022-09-28T21:10:48.836Z,99270.00
2022-09-28T21:13:18.944Z,99280.00
2022-09-28T21:15:49.240Z,99280.00
2022-09-28T21:18:23.179Z,99281.00
2022-09-28T21:20:54.845Z,99290.00
2022-09-28T21:23:25.266Z,99289.00
2022-09-28T21:26:05.530Z,99289.00
2022-09-28T21:28:36.699Z,99280.00
2022-09-28T21:31:09.416Z,99286.00
2022-09-28T21:33:42.182Z,99288.00
2022-09-28T21:36:13.326Z,99282.00
2022-09-28T21:38:43.539Z,99297.00
2022-09-28T21:41:13.815Z,99306.00
2022-09-28T21:43:43.914Z,99308.00
2022-09-28T21:46:14.301Z,99307.00
2022-09-28T21:48:47.298Z,99310.00
2022-09-28T21:51:20.253Z,99310.00
2022-09-28T21:53:51.297Z,99313.00
2022-09-28T21:56:23.209Z,99311.00
2022-09-28T21:58:53.751Z,99315.00
2022-09-28T22:01:26.832Z,99321.00
2022-09-28T22:04:00.923Z,99313.00
2022-09-28T22:06:31.466Z,99316.00
2022-09-28T22:09:01.622Z,99316.00
2022-09-28T22:11:32.069Z,99312.00
2022-09-28T22:14:03.155Z,99319.00
2022-09-28T22:16:34.513Z,99310.00
2022-09-28T22:19:07.135Z,99321.00
2022-09-28T22:21:37.517Z,99309.00
2022-09-28T22:24:09.823Z,99308.00
2022-09-28T22:26:41.136Z,99314.00
2022-09-28T22:29:13.009Z,99313.00
2022-09-28T22:31:44.304Z,99315.00
2022-09-28T22:34:17.242Z,99327.00
2022-09-28T22:36:47.537Z,99320.00
2022-09-28T22:39:17.769Z,99316.00
2022-09-28T22:41:48.186Z,99315.00
2022-09-28T22:44:19.189Z,99320.00
2022-09-28T22:46:49.929Z,99318.00
2022-09-28T22:49:22.946Z,99325.00
2022-09-28T22:51:53.583Z,99327.00
2022-09-28T22:54:23.923Z,99333.00
2022-09-28T22:56:54.048Z,99329.00
2022-09-28T22:59:24.513Z,99333.00
2022-09-28T23:01:54.718Z,99326.00
2022-09-28T23:04:27.544Z,99325.00
2022-09-28T23:06:57.664Z,99327.00
2022-09-28T23:09:27.878Z,99326.00
2022-09-28T23:11:57.940Z,99320.00
2022-09-28T23:14:28.166Z,99326.00
2022-09-28T23:16:58.251Z,99332.00
2022-09-28T23:19:30.924Z,99322.00
2022-09-28T23:22:01.389Z,99327.00
2022-09-28T23:24:31.541Z,99343.00
2022-09-28T23:27:01.715Z,99327.00
2022-09-28T23:29:31.877Z,99333.00
2022-09-28T23:32:02.403Z,99328.00
2022-09-28T23:34:35.124Z,99333.00
2022-09-28T23:37:05.341Z,99333.00
2022-09-28T23:39:35.587Z,99332.00
2022-09-28T23:42:05.929Z,99331.00
2022-09-28T23:44:36.630Z,99326.00
2022-09-28T23:47:06.861Z,99324.00
2022-09-28T23:49:39.637Z,99327.00
2022-09-28T23:52:09.912Z,99325.00
2022-09-28T23:54:40.322Z,99328.00
2022-09-28T23:57:10.422Z,99331.00
2022-09-28T23:59:40.651Z,99326.00
